Time;durP1;ratioP1;P1;durP2;ratioP2;P2;SDS_P1;SDS_P2;PMS_P1;PMS_P2;Temp;Humidity;BMP_temperature;BMP_pressure;BME280_temperature;BME280_humidity;BME280_pressure;Samples;Min_cycle;Max_cycle;Signal;HPM_P1;HPM_P2
2022/07/20 00:00:27;;;;;;;8.82;5.10;;;23.30;86.00;;;;;;4955535;28;19918;-83
2022/07/20 00:03:09;;;;;;;7.80;5.53;;;23.30;86.70;;;;;;4972711;28;20051;-81
2022/07/20 00:05:36;;;;;;;9.95;5.18;;;23.30;87.30;;;;;;4972790;28;20117;-82
2022/07/20 00:08:07;;;;;;;11.52;5.60;;;23.40;85.80;;;;;;4939171;28;20499;-82
2022/07/20 00:13:22;;;;;;;11.20;6.00;;;23.20;86.00;;;;;;4953309;28;20042;-82
2022/07/20 00:15:50;;;;;;;12.35;5.50;;;23.20;87.70;;;;;;4954872;28;20066;-84
2022/07/20 00:18:18;;;;;;;14.65;6.97;;;23.10;88.30;;;;;;4938866;28;20049;-81
2022/07/20 00:20:46;;;;;;;9.77;5.40;;;23.10;89.00;;;;;;4939287;28;20053;-82
2022/07/20 00:23:13;;;;;;;9.20;5.45;;;23.00;89.20;;;;;;4951831;28;20085;-81
2022/07/20 00:25:42;;;;;;;10.20;5.20;;;23.00;89.10;;;;;;4938680;28;20050;-82
2022/07/20 00:28:10;;;;;;;11.98;5.47;;;22.80;89.10;;;;;;4938472;28;20039;-80
2022/07/20 00:30:37;;;;;;;11.05;5.30;;;22.90;89.50;;;;;;4955899;28;20046;-80
2022/07/20 00:33:12;;;;;;;13.10;4.97;;;23.00;90.00;;;;;;4954779;28;20137;-81
2022/07/20 00:35:40;;;;;;;9.07;5.32;;;22.90;89.00;;;;;;4956476;29;20122;-80
2022/07/20 00:38:07;;;;;;;11.20;5.38;;;23.00;88.80;;;;;;4939262;29;20048;-84
2022/07/20 00:40:38;;;;;;;10.18;5.57;;;22.90;89.40;;;;;;4939110;29;20431;-81
2022/07/20 00:43:05;;;;;;;10.48;5.68;;;22.90;89.40;;;;;;4923957;29;20094;-82
2022/07/20 00:45:32;;;;;;;10.73;6.30;;;22.90;88.00;;;;;;4956414;29;20047;-82
2022/07/20 00:48:02;;;;;;;9.15;5.60;;;22.60;86.20;;;;;;4925267;28;20043;-80
2022/07/20 00:50:30;;;;;;;16.80;5.45;;;22.10;87.60;;;;;;4958478;28;20071;-82
2022/07/20 00:52:59;;;;;;;12.13;5.78;;;22.00;87.00;;;;;;4975532;28;20451;-81
2022/07/20 00:55:27;;;;;;;10.13;5.53;;;21.70;88.40;;;;;;4975378;28;20050;-80
2022/07/20 00:58:04;;;;;;;10.10;5.43;;;21.50;89.90;;;;;;4942703;28;20068;-81
2022/07/20 01:00:39;;;;;;;7.60;5.88;;;21.50;89.70;;;;;;4975282;28;20047;-81
2022/07/20 01:03:24;;;;;;;11.32;6.10;;;22.10;88.80;;;;;;4958389;28;20382;-85
2022/07/20 01:05:53;;;;;;;8.93;4.97;;;22.00;88.10;;;;;;4957990;28;20046;-81
2022/07/20 01:08:21;;;;;;;17.25;5.72;;;22.10;87.90;;;;;;4957935;28;20031;-80
2022/07/20 01:11:13;;;;;;;13.80;5.38;;;21.70;88.40;;;;;;4961680;28;20074;-81
2022/07/20 01:13:41;;;;;;;8.88;4.82;;;22.00;87.40;;;;;;4958358;28;20047;-82
2022/07/20 01:16:09;;;;;;;12.35;5.15;;;22.00;87.40;;;;;;4941943;28;20034;-85
2022/07/20 01:18:36;;;;;;;9.85;5.43;;;22.30;86.90;;;;;;4942512;28;20600;-82
2022/07/20 01:21:16;;;;;;;7.40;4.20;;;22.30;86.60;;;;;;4957922;28;20035;-82
2022/07/20 01:23:44;;;;;;;6.57;4.80;;;22.20;87.10;;;;;;4941756;28;20391;-81
2022/07/20 01:26:11;;;;;;;10.95;5.00;;;22.50;85.50;;;;;;4941801;28;20050;-80
2022/07/20 01:28:48;;;;;;;11.93;4.57;;;22.70;85.50;;;;;;4942565;28;20394;-81
2022/07/20 01:31:16;;;;;;;8.43;4.40;;;22.70;85.70;;;;;;4941828;28;20078;-81
2022/07/20 01:33:44;;;;;;;8.18;4.60;;;22.40;86.00;;;;;;4942049;28;20105;-80
2022/07/20 01:36:11;;;;;;;9.82;4.47;;;22.30;86.60;;;;;;4957284;28;20122;-81
2022/07/20 01:38:39;;;;;;;10.23;4.93;;;22.10;86.30;;;;;;4941353;28;20043;-81
2022/07/20 01:41:06;;;;;;;12.98;5.40;;;21.60;87.20;;;;;;4957386;28;20063;-80
2022/07/20 01:43:40;;;;;;;11.40;4.95;;;21.90;87.70;;;;;;4974387;28;20039;-82
2022/07/20 01:46:07;;;;;;;11.50;5.40;;;22.30;85.40;;;;;;4941529;28;20042;-81
2022/07/20 01:48:35;;;;;;;11.07;5.45;;;22.40;84.60;;;;;;4974358;28;20059;-82
2022/07/20 01:51:03;;;;;;;14.43;5.55;;;21.90;85.80;;;;;;4956706;28;20459;-80
2022/07/20 01:53:30;;;;;;;11.43;5.57;;;22.00;85.20;;;;;;4941257;28;20387;-80
2022/07/20 01:56:02;;;;;;;9.52;5.00;;;22.30;84.80;;;;;;4974127;28;20113;-81
2022/07/20 01:58:29;;;;;;;10.48;5.13;;;22.50;83.40;;;;;;4974485;28;20358;-81
2022/07/20 02:00:56;;;;;;;10.57;5.25;;;22.60;82.90;;;;;;4956960;28;20053;-82
2022/07/20 02:03:50;;;;;;;11.00;5.13;;;22.40;84.70;;;;;;4956864;28;20041;-80
2022/07/20 02:06:18;;;;;;;17.45;6.03;;;22.30;86.70;;;;;;4957054;28;20042;-82
2022/07/20 02:08:58;;;;;;;9.98;5.00;;;22.30;87.10;;;;;;4942475;28;20086;-83
2022/07/20 02:11:25;;;;;;;10.68;5.18;;;22.10;86.70;;;;;;4956690;28;20069;-81
2022/07/20 02:13:55;;;;;;;15.10;5.18;;;21.90;88.00;;;;;;4957441;28;20043;-82
2022/07/20 02:16:28;;;;;;;9.95;5.18;;;21.70;88.50;;;;;;4956660;28;20047;-81
2022/07/20 02:18:55;;;;;;;11.73;5.45;;;21.80;89.00;;;;;;4956658;28;20046;-82
2022/07/20 02:21:24;;;;;;;13.65;5.75;;;21.90;90.20;;;;;;4973967;28;20038;-81
2022/07/20 02:23:58;;;;;;;11.25;5.45;;;21.80;90.40;;;;;;4940347;28;20039;-80
2022/07/20 02:26:25;;;;;;;6.90;4.60;;;21.70;91.00;;;;;;4956652;28;20042;-82
2022/07/20 02:28:52;;;;;;;7.78;4.70;;;21.80;90.40;;;;;;4973754;28;20125;-81
2022/07/20 02:31:23;;;;;;;7.32;4.18;;;21.70;90.70;;;;;;4956954;28;20054;-81
2022/07/20 02:33:59;;;;;;;6.80;4.00;;;21.80;90.00;;;;;;4941773;28;20386;-81
2022/07/20 02:36:26;;;;;;;8.52;4.43;;;21.70;90.60;;;;;;4956222;28;20037;-81
2022/07/20 02:38:53;;;;;;;5.93;4.03;;;21.80;90.20;;;;;;4940548;28;20054;-81
2022/07/20 02:41:22;;;;;;;7.45;3.83;;;21.80;90.00;;;;;;4956608;28;20042;-81
2022/07/20 02:43:50;;;;;;;6.85;3.58;;;21.70;89.70;;;;;;4973461;28;20038;-81
2022/07/20 02:46:24;;;;;;;6.93;3.55;;;21.40;89.90;;;;;;4956370;28;20051;-80
2022/07/20 02:48:51;;;;;;;7.80;3.55;;;21.30;90.30;;;;;;4940699;28;20054;-79
2022/07/20 02:51:20;;;;;;;6.75;3.90;;;21.20;90.20;;;;;;4956700;28;20041;-81
2022/07/20 02:53:47;;;;;;;5.22;3.20;;;21.20;90.70;;;;;;4973051;28;20043;-83
2022/07/20 02:56:16;;;;;;;7.03;3.92;;;21.40;90.80;;;;;;4956191;28;20384;-83
2022/07/20 02:58:45;;;;;;;5.10;3.30;;;21.20;90.70;;;;;;4973351;28;20509;-85
2022/07/20 03:01:15;;;;;;;6.75;3.40;;;20.90;91.70;;;;;;4955909;28;20046;-80
2022/07/20 03:03:43;;;;;;;8.40;3.65;;;21.00;91.50;;;;;;4939917;28;20039;-79
2022/07/20 03:06:11;;;;;;;5.57;3.65;;;20.70;91.60;;;;;;4955839;28;20068;-80
2022/07/20 03:08:38;;;;;;;8.18;3.53;;;20.90;92.90;;;;;;4955673;28;20053;-79
2022/07/20 03:11:16;;;;;;;7.28;3.45;;;21.00;92.90;;;;;;4955928;28;20050;-84
2022/07/20 03:13:44;;;;;;;5.80;3.60;;;21.20;91.80;;;;;;4955881;28;20105;-80
2022/07/20 03:16:13;;;;;;;6.20;3.40;;;20.90;92.40;;;;;;4973246;28;20041;-79
2022/07/20 03:18:40;;;;;;;5.82;3.70;;;20.90;93.30;;;;;;4956195;28;20047;-79
2022/07/20 03:21:08;;;;;;;5.70;3.40;;;20.90;93.80;;;;;;4955749;28;20039;-80
2022/07/20 03:23:36;;;;;;;6.95;3.70;;;21.00;93.60;;;;;;4939894;28;20042;-79
2022/07/20 03:26:03;;;;;;;6.97;3.58;;;20.90;93.50;;;;;;4956126;28;20051;-78
2022/07/20 03:28:31;;;;;;;7.57;3.97;;;20.90;94.20;;;;;;4955702;28;20101;-81
2022/07/20 03:30:58;;;;;;;5.60;3.53;;;20.80;94.70;;;;;;4972921;28;20039;-80
2022/07/20 03:33:26;;;;;;;6.15;3.63;;;20.90;94.70;;;;;;4972981;28;20043;-79
2022/07/20 03:35:53;;;;;;;5.25;3.72;;;20.90;94.70;;;;;;4973182;28;20039;-83
2022/07/20 03:38:21;;;;;;;6.90;3.60;;;20.90;95.10;;;;;;4972946;28;20050;-81
2022/07/20 03:40:48;;;;;;;6.72;3.55;;;21.00;95.20;;;;;;4955809;28;20031;-83
2022/07/20 03:43:16;;;;;;;8.75;4.38;;;20.90;95.40;;;;;;4973115;28;20053;-83
2022/07/20 03:45:44;;;;;;;7.00;3.63;;;20.90;94.90;;;;;;4939978;28;20043;-83
2022/07/20 03:48:11;;;;;;;10.57;4.30;;;20.60;95.70;;;;;;4972444;28;20035;-83
2022/07/20 03:50:41;;;;;;;6.65;4.00;;;20.50;95.90;;;;;;4955738;28;20038;-85
2022/07/20 03:53:09;;;;;;;8.30;4.30;;;20.80;95.90;;;;;;4972723;28;20477;-83
2022/07/20 03:55:39;;;;;;;6.47;3.85;;;20.80;95.40;;;;;;4940324;28;20434;-84
2022/07/20 03:58:07;;;;;;;8.57;4.18;;;20.90;95.10;;;;;;4955621;28;20057;-82
2022/07/20 04:00:48;;;;;;;8.43;4.22;;;21.00;94.60;;;;;;4953919;28;20051;-81
2022/07/20 04:03:15;;;;;;;6.38;4.10;;;21.10;94.00;;;;;;4939488;28;20057;-82
2022/07/20 04:05:43;;;;;;;7.43;4.30;;;21.10;93.90;;;;;;4942531;28;20379;-83
2022/07/20 04:08:10;;;;;;;9.85;4.65;;;21.10;94.40;;;;;;4959361;28;20070;-80
2022/07/20 04:10:38;;;;;;;10.48;5.93;;;20.90;93.90;;;;;;4943510;28;20486;-84
2022/07/20 04:13:06;;;;;;;11.02;5.03;;;20.20;95.30;;;;;;4959402;28;20045;-83
2022/07/20 04:15:33;;;;;;;8.82;4.65;;;19.60;97.90;;;;;;4959075;28;20038;-84
2022/07/20 04:18:08;;;;;;;9.45;4.88;;;20.50;96.70;;;;;;4959777;28;20050;-82
2022/07/20 04:20:35;;;;;;;9.07;4.63;;;20.90;96.00;;;;;;4958867;28;20137;-83
2022/07/20 04:23:03;;;;;;;8.07;5.07;;;21.10;95.60;;;;;;4958951;28;20113;-80
2022/07/20 04:25:31;;;;;;;8.93;5.50;;;21.10;95.70;;;;;;4959019;28;20045;-85
2022/07/20 04:27:58;;;;;;;8.95;4.95;;;21.10;95.30;;;;;;4958814;28;20030;-83
2022/07/20 04:30:33;;;;;;;14.40;7.30;;;21.30;95.10;;;;;;4958962;28;20042;-84
2022/07/20 04:33:00;;;;;;;17.33;8.25;;;21.30;94.60;;;;;;4976629;28;20027;-82
2022/07/20 04:35:28;;;;;;;13.43;7.40;;;21.50;93.90;;;;;;4959261;28;20041;-86
2022/07/20 04:37:58;;;;;;;11.70;6.30;;;21.50;94.40;;;;;;4943221;28;20404;-83
2022/07/20 04:40:25;;;;;;;6.93;4.28;;;21.50;94.70;;;;;;4959419;28;20077;-84
2022/07/20 04:42:56;;;;;;;7.55;4.75;;;21.50;94.90;;;;;;4959819;28;20062;-84
2022/07/20 04:45:23;;;;;;;6.00;3.85;;;21.30;95.10;;;;;;4975749;28;20043;-82
2022/07/20 04:47:50;;;;;;;12.02;4.60;;;21.40;95.40;;;;;;4975266;28;20086;-82
2022/07/20 04:50:18;;;;;;;20.20;7.35;;;21.40;95.90;;;;;;4942239;28;20056;-81
2022/07/20 04:52:45;;;;;;;16.48;7.00;;;21.60;94.50;;;;;;4958163;28;20039;-80
2022/07/20 04:55:13;;;;;;;16.95;8.15;;;21.60;94.90;;;;;;4942433;28;20063;-82
2022/07/20 04:57:40;;;;;;;18.48;8.60;;;21.80;93.90;;;;;;4975573;28;20054;-83
2022/07/20 05:00:08;;;;;;;22.48;9.93;;;21.90;93.70;;;;;;4958567;28;20050;-83
2022/07/20 05:02:36;;;;;;;17.08;7.63;;;21.80;94.40;;;;;;4975296;28;20035;-81
2022/07/20 05:05:04;;;;;;;12.30;6.50;;;21.40;93.40;;;;;;4958236;28;20383;-82
2022/07/20 05:07:32;;;;;;;17.40;7.28;;;21.00;94.10;;;;;;4958060;28;20049;-81
2022/07/20 05:09:59;;;;;;;18.83;7.28;;;21.30;94.60;;;;;;4957627;28;20418;-83
2022/07/20 05:12:27;;;;;;;17.35;7.10;;;21.80;93.40;;;;;;4958285;28;20054;-81
2022/07/20 05:14:54;;;;;;;18.85;6.30;;;22.10;92.90;;;;;;4957846;28;20050;-82
2022/07/20 05:17:21;;;;;;;14.43;7.70;;;22.10;92.90;;;;;;4957444;28;20039;-82
2022/07/20 05:19:49;;;;;;;15.15;7.45;;;22.10;92.90;;;;;;4957825;28;20046;-82
2022/07/20 05:22:16;;;;;;;17.00;6.72;;;22.30;91.90;;;;;;4942631;28;20042;-84
2022/07/20 05:24:43;;;;;;;12.65;5.90;;;22.30;91.60;;;;;;4941536;28;20146;-82
2022/07/20 05:27:12;;;;;;;14.50;5.88;;;22.40;91.50;;;;;;4958320;28;20051;-87
2022/07/20 05:29:39;;;;;;;15.40;6.82;;;22.40;91.20;;;;;;4942807;28;20043;-84
2022/07/20 05:32:08;;;;;;;173.50;120.43;;;22.00;91.60;;;;;;4957936;28;20388;-81
2022/07/20 05:34:35;;;;;;;100.95;69.80;;;22.00;92.40;;;;;;4957250;28;20042;-81
2022/07/20 05:37:03;;;;;;;23.80;13.32;;;22.30;92.70;;;;;;4975151;28;20043;-82
2022/07/20 05:39:30;;;;;;;11.88;7.93;;;22.30;92.80;;;;;;4941539;28;20046;-81
2022/07/20 05:41:58;;;;;;;12.90;6.63;;;22.30;93.20;;;;;;4957622;28;20051;-80
2022/07/20 05:44:25;;;;;;;12.60;6.30;;;22.50;91.90;;;;;;4957259;28;20047;-82
2022/07/20 05:46:53;;;;;;;11.68;4.85;;;22.60;91.80;;;;;;4942297;28;20069;-81
2022/07/20 05:49:22;;;;;;;9.27;4.90;;;22.20;91.20;;;;;;4974487;28;20042;-80
2022/07/20 05:51:50;;;;;;;10.50;4.60;;;21.90;91.70;;;;;;4941470;28;20061;-82
2022/07/20 05:54:17;;;;;;;9.30;4.63;;;22.00;92.30;;;;;;4974394;28;20046;-81
2022/07/20 05:56:45;;;;;;;10.23;6.57;;;22.00;92.30;;;;;;4957274;28;20054;-83
2022/07/20 05:59:15;;;;;;;36.65;26.30;;;22.20;91.90;;;;;;4941518;28;20038;-83
2022/07/20 06:01:44;;;;;;;;;;;22.30;92.10;;;;;;4953069;28;20080;-82
2022/07/20 06:04:18;;;;;;;8.80;5.90;;;22.50;91.00;;;;;;4934080;29;19981;-82
2022/07/20 06:06:46;;;;;;;16.08;7.53;;;22.60;90.20;;;;;;4941719;28;20055;-84
2022/07/20 06:09:14;;;;;;;12.65;5.18;;;22.70;90.70;;;;;;4941286;28;20063;-83
2022/07/20 06:11:48;;;;;;;9.85;4.85;;;22.80;90.30;;;;;;4957890;28;20054;-82
2022/07/20 06:14:16;;;;;;;8.98;5.05;;;22.70;90.50;;;;;;4974231;28;20057;-82
2022/07/20 06:16:43;;;;;;;7.88;4.80;;;22.40;90.60;;;;;;4974383;28;20399;-83
2022/07/20 06:19:14;;;;;;;12.10;5.65;;;22.50;90.80;;;;;;4974324;28;20042;-82
2022/07/20 06:21:54;;;;;;;15.63;6.93;;;22.60;91.20;;;;;;4958105;28;20066;-84
2022/07/20 06:24:25;;;;;;;11.52;5.75;;;22.80;91.50;;;;;;4956517;28;20054;-80
2022/07/20 06:26:54;;;;;;;11.75;5.13;;;23.00;91.00;;;;;;4940500;28;20455;-84
2022/07/20 06:29:22;;;;;;;14.63;6.13;;;23.00;90.40;;;;;;4956016;28;20503;-84
2022/07/20 06:31:51;;;;;;;12.85;5.85;;;23.10;90.70;;;;;;4941433;28;20054;-82
2022/07/20 06:34:38;;;;;;;34.20;9.45;;;23.20;91.10;;;;;;4973328;28;20509;-83
2022/07/20 06:40:58;;;;;;;13.82;7.10;;;23.30;90.90;;;;;;4956634;28;20488;-85
2022/07/20 06:43:35;;;;;;;22.15;6.97;;;23.40;90.80;;;;;;4940554;28;20051;-82
2022/07/20 06:46:02;;;;;;;12.25;5.90;;;23.60;90.30;;;;;;4955992;28;20084;-83
2022/07/20 06:48:35;;;;;;;29.23;17.60;;;23.70;90.20;;;;;;4956183;28;20069;-83
2022/07/20 06:51:07;;;;;;;43.08;29.10;;;23.80;89.90;;;;;;4940762;28;20061;-82
2022/07/20 06:53:35;;;;;;;17.63;9.65;;;23.50;90.30;;;;;;4956276;28;20444;-82
2022/07/20 06:56:06;;;;;;;14.82;7.85;;;23.50;91.00;;;;;;4940477;28;20043;-86
2022/07/20 06:58:33;;;;;;;20.77;7.90;;;23.50;91.00;;;;;;4973159;28;20053;-85
2022/07/20 07:01:01;;;;;;;17.27;8.48;;;23.30;91.30;;;;;;4955942;28;20082;-83
2022/07/20 07:03:40;;;;;;;15.93;7.10;;;23.30;91.20;;;;;;4956209;28;20061;-82
2022/07/20 07:06:07;;;;;;;13.38;7.28;;;23.40;90.90;;;;;;4955839;28;20054;-82
2022/07/20 07:08:35;;;;;;;14.52;6.93;;;23.50;90.50;;;;;;4973221;28;20138;-83
2022/07/20 07:11:02;;;;;;;14.02;6.63;;;23.60;90.70;;;;;;4972934;28;20050;-82
2022/07/20 07:13:29;;;;;;;15.68;7.22;;;23.70;90.10;;;;;;4956401;28;20052;-83
2022/07/20 07:16:36;;;;;;;15.85;6.93;;;23.80;89.50;;;;;;4972432;28;20133;-85
2022/07/20 07:19:03;;;;;;;16.10;6.72;;;23.90;89.90;;;;;;4973075;28;20407;-82
2022/07/20 07:21:31;;;;;;;15.63;6.30;;;24.00;90.00;;;;;;4940421;28;20051;-83
2022/07/20 07:23:58;;;;;;;16.80;6.47;;;24.00;87.60;;;;;;4940611;28;20142;-82
2022/07/20 07:26:26;;;;;;;14.50;6.53;;;24.00;87.30;;;;;;4939847;28;20054;-84
2022/07/20 07:28:53;;;;;;;20.00;7.18;;;24.10;87.10;;;;;;4956141;28;20051;-83
2022/07/20 07:31:35;;;;;;;12.77;6.40;;;24.00;86.10;;;;;;4953889;28;20113;-83
2022/07/20 07:34:03;;;;;;;12.52;6.20;;;24.40;85.20;;;;;;4956009;28;20402;-83
2022/07/20 07:36:37;;;;;;;21.45;8.02;;;24.50;86.20;;;;;;4939971;28;20039;-83
2022/07/20 07:39:05;;;;;;;9.98;5.32;;;24.40;85.70;;;;;;4973936;28;20051;-81
2022/07/20 07:41:32;;;;;;;11.20;5.13;;;24.50;85.20;;;;;;4943692;28;20069;-81
2022/07/20 07:44:00;;;;;;;11.00;5.35;;;24.50;83.60;;;;;;4944167;28;20072;-84
2022/07/20 07:46:29;;;;;;;18.48;5.20;;;24.60;83.80;;;;;;4959262;28;20125;-80
2022/07/20 07:48:59;;;;;;;15.02;5.35;;;24.70;83.30;;;;;;4959467;28;20094;-82
2022/07/20 07:51:27;;;;;;;14.00;5.10;;;24.80;82.70;;;;;;4961415;28;20039;-82
2022/07/20 07:53:54;;;;;;;10.15;4.20;;;24.70;80.70;;;;;;4943662;28;20411;-80
2022/07/20 07:56:22;;;;;;;8.98;4.88;;;24.80;80.30;;;;;;4976232;28;20039;-80
2022/07/20 07:58:52;;;;;;;7.50;4.43;;;24.80;79.00;;;;;;4959742;28;20043;-82
2022/07/20 08:01:40;;;;;;;10.32;4.40;;;24.80;79.30;;;;;;4975905;28;20062;-81
2022/07/20 08:04:08;;;;;;;10.25;4.38;;;24.80;79.00;;;;;;4976985;28;20046;-84
2022/07/20 08:06:36;;;;;;;7.93;4.15;;;24.80;79.00;;;;;;4976371;28;20043;-80
2022/07/20 08:09:04;;;;;;;7.80;4.05;;;25.00;78.80;;;;;;4959038;28;20383;-81
2022/07/20 08:11:32;;;;;;;13.02;4.90;;;25.00;76.70;;;;;;4959007;28;20139;-81
2022/07/20 08:14:02;;;;;;;9.93;3.90;;;25.00;77.80;;;;;;4976590;28;20419;-81
2022/07/20 08:16:32;;;;;;;7.00;4.18;;;25.00;76.60;;;;;;4975852;28;20473;-81
2022/07/20 08:19:06;;;;;;;30.55;20.85;;;25.00;77.20;;;;;;4959394;28;20039;-83
2022/07/20 08:21:34;;;;;;;18.38;9.32;;;25.20;78.10;;;;;;4975790;28;20134;-82
2022/07/20 08:24:03;;;;;;;29.13;20.55;;;25.30;76.90;;;;;;4976406;28;20039;-81
2022/07/20 08:26:32;;;;;;;21.63;12.90;;;25.30;76.20;;;;;;4959047;28;20419;-83
2022/07/20 08:28:59;;;;;;;8.93;5.20;;;25.50;76.80;;;;;;4943261;28;20049;-80
2022/07/20 08:31:26;;;;;;;8.30;3.83;;;25.70;77.10;;;;;;4975910;28;20417;-84
2022/07/20 08:33:54;;;;;;;8.02;4.63;;;25.60;76.50;;;;;;4958750;28;20046;-85
2022/07/20 08:36:22;;;;;;;5.57;3.35;;;25.50;76.60;;;;;;4942519;28;20153;-84
2022/07/20 08:39:41;;;;;;;8.20;4.10;;;25.60;75.20;;;;;;4958754;28;20043;-84
2022/07/20 08:42:09;;;;;;;6.55;3.13;;;25.60;75.60;;;;;;4941037;28;20150;-82
2022/07/20 08:44:52;;;;;;;6.45;2.85;;;25.70;76.00;;;;;;4975825;28;20050;-84
2022/07/20 08:47:25;;;;;;;5.55;3.35;;;25.80;75.50;;;;;;4942554;28;20485;-84
2022/07/20 08:49:52;;;;;;;6.47;3.45;;;25.90;75.70;;;;;;4975435;28;20049;-84
2022/07/20 08:52:38;;;;;;;4.93;2.92;;;25.90;74.70;;;;;;4941992;28;20545;-85
2022/07/20 08:55:06;;;;;;;8.70;3.63;;;25.90;75.80;;;;;;4975484;28;20042;-85
2022/07/20 08:57:46;;;;;;;5.20;3.00;;;25.80;75.20;;;;;;4958528;28;20051;-86
2022/07/20 09:00:14;;;;;;;;;;;25.80;74.20;;;;;;4959550;28;20046;-86
2022/07/20 09:03:03;;;;;;;23.83;16.15;;;25.90;75.20;;;;;;4958215;28;20016;-86
2022/07/20 09:06:17;;;;;;;17.77;14.43;;;26.00;74.20;;;;;;4944071;28;20475;-85
2022/07/20 09:09:06;;;;;;;15.77;10.25;;;26.10;74.30;;;;;;4956864;28;20058;-86
2022/07/20 09:11:34;;;;;;;8.80;3.35;;;26.40;74.10;;;;;;4942993;28;20053;-85
2022/07/20 09:14:36;;;;;;;8.77;3.22;;;26.50;73.50;;;;;;4942089;28;20046;-86
2022/07/20 09:17:22;;;;;;;9.15;2.97;;;26.80;72.40;;;;;;4940251;28;20135;-84
2022/07/20 09:19:54;;;;;;;5.10;2.70;;;26.80;69.90;;;;;;4941501;28;20138;-83
2022/07/20 09:22:49;;;;;;;6.55;2.63;;;26.80;67.80;;;;;;4956918;28;20055;-81
2022/07/20 09:25:35;;;;;;;5.50;2.70;;;26.80;68.80;;;;;;4943743;28;20430;-82
2022/07/20 09:28:05;;;;;;;6.20;3.78;;;27.00;66.90;;;;;;4941772;28;20050;-83
2022/07/20 09:30:32;;;;;;;5.78;2.80;;;27.00;69.30;;;;;;4974020;28;20046;-82
2022/07/20 09:37:22;;;;;;;4.32;2.60;;;27.50;66.60;;;;;;4989718;23;20413;-83
2022/07/20 09:40:15;;;;;;;4.50;2.60;;;27.80;66.10;;;;;;4976218;28;20516;-83
2022/07/20 09:42:46;;;;;;;4.25;2.42;;;27.80;65.80;;;;;;4974832;28;20124;-84
2022/07/20 09:45:54;;;;;;;;;;;;;;;;;;;;;
2022/07/20 09:49:21;;;;;;;4.32;2.40;;;28.10;64.40;;;;;;4958514;28;20060;-83
2022/07/20 09:51:57;;;;;;;7.63;2.85;;;28.00;64.30;;;;;;4983114;28;20035;-85
2022/07/20 09:54:45;;;;;;;4.82;2.33;;;28.20;64.50;;;;;;4986765;28;20049;-84
2022/07/20 09:57:22;;;;;;;4.32;2.35;;;28.40;63.90;;;;;;4968297;28;20034;-86
2022/07/20 09:59:51;;;;;;;6.68;2.33;;;28.50;64.70;;;;;;4960578;28;20076;-84
2022/07/20 10:02:26;;;;;;;4.65;2.42;;;28.40;63.00;;;;;;4996296;28;20036;-85
2022/07/20 10:04:54;;;;;;;5.40;2.13;;;28.40;60.70;;;;;;4993289;28;20042;-81
2022/07/20 10:07:22;;;;;;;7.90;2.60;;;28.40;61.20;;;;;;5000616;28;20117;-81
2022/07/20 10:09:51;;;;;;;4.47;2.10;;;28.60;62.40;;;;;;4971302;28;20077;-80
2022/07/20 10:12:19;;;;;;;3.97;2.40;;;28.40;61.20;;;;;;4960007;28;20319;-81
2022/07/20 10:14:49;;;;;;;6.57;2.20;;;28.50;61.10;;;;;;4959992;28;20046;-83
2022/07/20 10:17:17;;;;;;;5.28;2.45;;;28.70;61.80;;;;;;4975851;28;20133;-81
2022/07/20 10:19:47;;;;;;;7.80;2.28;;;28.90;60.70;;;;;;4959982;28;20058;-84
2022/07/20 10:22:15;;;;;;;5.47;2.67;;;29.00;61.00;;;;;;4976179;28;20034;-82
2022/07/20 10:24:44;;;;;;;2.78;1.83;;;29.00;58.60;;;;;;4975753;28;20398;-81
2022/07/20 10:27:13;;;;;;;2.75;1.70;;;28.90;57.60;;;;;;4959631;28;20069;-81
2022/07/20 10:29:44;;;;;;;5.35;2.00;;;28.80;57.90;;;;;;4979073;28;20389;-82
2022/07/20 10:32:14;;;;;;;4.45;2.20;;;29.10;59.90;;;;;;4982718;28;20048;-82
2022/07/20 10:34:50;;;;;;;3.28;1.92;;;29.20;60.10;;;;;;4975762;28;20539;-84
2022/07/20 10:37:23;;;;;;;3.40;1.98;;;29.30;59.10;;;;;;4982355;28;20049;-81
2022/07/20 10:39:57;;;;;;;4.32;1.92;;;29.40;59.80;;;;;;4994736;28;20104;-81
2022/07/20 10:42:37;;;;;;;9.48;1.90;;;29.60;59.10;;;;;;4992872;28;20045;-82
2022/07/20 10:45:16;;;;;;;5.53;2.22;;;29.60;59.30;;;;;;4975725;28;20379;-83
2022/07/20 10:47:49;;;;;;;5.18;2.22;;;29.70;59.10;;;;;;4975200;28;20073;-81
2022/07/20 10:50:23;;;;;;;5.20;2.55;;;29.80;59.80;;;;;;4969874;28;20125;-82
2022/07/20 10:52:57;;;;;;;13.55;9.55;;;29.70;60.80;;;;;;4983769;28;20451;-82
2022/07/20 10:55:33;;;;;;;17.65;12.80;;;30.00;58.90;;;;;;4984578;28;20444;-83
2022/07/20 10:58:08;;;;;;;10.88;8.02;;;30.10;58.20;;;;;;4970145;28;20108;-82
2022/07/20 11:00:57;;;;;;;6.75;3.05;;;30.00;58.30;;;;;;4969386;28;20073;-84
2022/07/20 11:03:27;;;;;;;4.30;2.13;;;29.90;59.80;;;;;;4991886;28;20049;-82
2022/07/20 11:06:16;;;;;;;5.72;2.88;;;30.10;58.70;;;;;;4992384;28;20128;-82
2022/07/20 11:08:49;;;;;;;7.53;2.97;;;29.90;58.00;;;;;;4983362;28;20081;-82
2022/07/20 11:11:26;;;;;;;5.07;1.90;;;30.00;56.70;;;;;;4967864;28;20048;-84
2022/07/20 11:13:54;;;;;;;4.38;1.90;;;30.10;56.40;;;;;;5000114;28;20038;-85
2022/07/20 11:16:38;;;;;;;4.47;2.55;;;30.00;57.00;;;;;;4986547;28;20049;-83
2022/07/20 11:19:07;;;;;;;3.50;1.98;;;30.00;57.00;;;;;;4967866;28;20050;-83
2022/07/20 11:21:40;;;;;;;5.15;1.88;;;30.40;57.30;;;;;;4991125;28;20042;-84
2022/07/20 11:24:23;;;;;;;7.43;2.00;;;30.20;55.80;;;;;;4985537;28;20137;-83
2022/07/20 11:26:56;;;;;;;4.00;1.95;;;30.00;56.50;;;;;;4975301;28;20065;-85
2022/07/20 11:29:25;;;;;;;2.88;1.75;;;29.70;55.60;;;;;;4974815;28;20125;-82
2022/07/20 11:31:52;;;;;;;4.38;1.90;;;30.00;56.30;;;;;;4977143;28;20061;-83
2022/07/20 11:34:20;;;;;;;6.55;1.73;;;30.50;55.90;;;;;;4975114;28;20058;-83
2022/07/20 11:36:49;;;;;;;2.72;1.77;;;30.60;54.50;;;;;;4989235;28;20449;-80
2022/07/20 11:39:42;;;;;;;3.60;1.90;;;30.60;55.10;;;;;;4984995;28;20145;-83
2022/07/20 11:42:14;;;;;;;3.10;1.60;;;30.70;54.20;;;;;;4975284;28;20050;-84
2022/07/20 11:44:57;;;;;;;5.20;1.80;;;30.70;54.70;;;;;;4958881;28;20073;-84
2022/07/20 11:47:35;;;;;;;2.90;1.48;;;30.90;52.70;;;;;;4991559;28;20050;-82
2022/07/20 11:50:07;;;;;;;4.22;1.63;;;30.70;54.40;;;;;;4964777;28;20042;-81
2022/07/20 11:52:42;;;;;;;6.80;2.00;;;30.90;54.10;;;;;;4966430;28;20054;-82
2022/07/20 11:55:12;;;;;;;5.93;1.83;;;30.90;55.10;;;;;;4968513;28;20075;-81
2022/07/20 11:57:40;;;;;;;2.45;1.40;;;30.70;53.90;;;;;;4962591;23;20079;-83
2022/07/20 12:00:08;;;;;;;3.53;1.70;;;30.90;51.90;;;;;;4909781;29;20063;-83
2022/07/20 12:02:36;;;;;;;4.15;1.48;;;30.50;52.50;;;;;;4918129;29;20067;-83
2022/07/20 12:05:08;;;;;;;2.80;1.42;;;30.40;51.70;;;;;;4901589;29;20063;-81
2022/07/20 12:10:42;;;;;;;4.55;1.52;;;30.90;52.40;;;;;;4925952;29;20031;-85
2022/07/20 12:13:13;;;;;;;4.78;2.00;;;31.00;50.20;;;;;;4919795;29;20047;-84
2022/07/20 12:16:00;;;;;;;3.03;1.58;;;30.80;52.20;;;;;;4911904;29;20099;-84
2022/07/20 12:18:52;;;;;;;3.13;1.50;;;30.80;51.60;;;;;;4910865;29;20047;-84
2022/07/20 12:21:24;;;;;;;3.65;1.33;;;31.20;51.20;;;;;;4926979;29;20039;-86
2022/07/20 12:23:53;;;;;;;2.53;1.42;;;31.60;50.00;;;;;;4908343;29;20051;-82
2022/07/20 12:26:30;;;;;;;4.67;1.47;;;31.30;51.10;;;;;;4925878;29;20550;-84
2022/07/20 12:29:26;;;;;;;4.25;1.73;;;31.60;51.80;;;;;;4920154;29;20099;-83
2022/07/20 12:32:05;;;;;;;2.75;1.60;;;31.80;53.20;;;;;;4930756;29;20390;-86
2022/07/20 12:34:53;;;;;;;3.17;1.67;;;31.90;51.80;;;;;;4939203;29;20117;-84
2022/07/20 12:37:22;;;;;;;4.32;2.65;;;32.00;52.90;;;;;;4939304;29;20041;-84
2022/07/20 12:39:54;;;;;;;4.32;2.25;;;32.10;51.30;;;;;;4906953;29;20056;-84
2022/07/20 12:42:27;;;;;;;4.13;1.80;;;32.30;51.70;;;;;;4904565;29;20138;-84
2022/07/20 12:49:22;;;;;;;3.17;1.45;;;31.80;52.20;;;;;;4897241;29;20047;-85
2022/07/20 12:51:51;;;;;;;6.05;3.30;;;31.80;51.60;;;;;;4907002;29;20051;-86
2022/07/20 12:54:19;;;;;;;4.40;2.20;;;31.60;51.30;;;;;;4893624;29;20056;-88
2022/07/20 12:57:31;;;;;;;9.95;5.88;;;31.00;52.10;;;;;;4925787;29;20071;-86
2022/07/20 13:00:05;;;;;;;4.63;2.40;;;31.50;51.20;;;;;;4904483;29;20444;-86
2022/07/20 13:02:33;;;;;;;6.03;2.35;;;31.70;50.50;;;;;;4905097;29;20087;-85
2022/07/20 13:09:16;;;;;;;4.68;1.80;;;31.60;51.10;;;;;;4923220;29;20372;-87
2022/07/20 13:11:53;;;;;;;4.07;1.98;;;31.50;51.40;;;;;;4890719;29;20060;-87
2022/07/20 13:14:25;;;;;;;3.80;1.83;;;31.40;51.50;;;;;;4869996;29;20054;-87
2022/07/20 13:17:11;;;;;;;4.82;1.70;;;31.70;52.20;;;;;;4910041;29;20043;-87
2022/07/20 13:19:38;;;;;;;5.25;2.40;;;32.20;52.50;;;;;;4904152;29;20058;-86
2022/07/20 13:22:12;;;;;;;4.18;1.65;;;31.90;51.40;;;;;;4905061;29;20060;-86
2022/07/20 13:24:40;;;;;;;3.33;1.80;;;31.90;51.20;;;;;;4890268;29;20496;-88
2022/07/20 13:27:07;;;;;;;2.72;1.50;;;32.00;50.90;;;;;;4900978;29;20131;-87
2022/07/20 13:29:37;;;;;;;4.72;1.83;;;31.60;51.40;;;;;;4886490;29;20140;-88